Sandy Bay Township, Maine
Current Conditions -  °F | °C
As of 9:00 PM on Wednesday 22 Oct 2014 (Local Time) from CYSC Reporting Station
Overcast Overcast  
Wind Chill: 44°   Ceiling: 3700
Heat Index: 48°   Visibility: 9mi
Dew Point: 37°   Wind: 10mph
Humidity: 66%   Direction: 40°NE
Pressure: 30.17"   Gusts: 18mph
Location:  45.7142°N, 70.304°W
Report Text: CYSC 230100Z AUTO 04009G16KT 9SM OVC037 09/03 A3017 RMK SLP223
Loading
Personal Weather Stations






























Interactive Weather Map
Tropical Storm Tracking
New forecast layout! Learn more

10-Day Weather Forecast

Advertisements
Track Severe Weather on mobile